Time;durP1;ratioP1;P1;durP2;ratioP2;P2;SDS_P1;SDS_P2;PMS_P1;PMS_P2;Temp;Humidity;BMP_temperature;BMP_pressure;BME280_temperature;BME280_humidity;BME280_pressure;Samples;Min_cycle;Max_cycle;Signal;HPM_P1;HPM_P2
2023/03/01 00:00:53;;;;;;;17.37;15.10;;;2.20;99.90;;;;;;5034356;28;20521;-41
2023/03/01 00:03:18;;;;;;;17.93;14.90;;;2.20;99.90;;;;;;5036506;28;20436;-40
2023/03/01 00:05:46;;;;;;;19.60;15.77;;;2.20;99.90;;;;;;5037017;28;20265;-41
2023/03/01 00:08:11;;;;;;;17.60;14.80;;;2.20;1.00;;;;;;5036459;28;20192;-42
2023/03/01 00:10:37;;;;;;;20.30;15.37;;;2.10;1.00;;;;;;5037190;28;20512;-41
2023/03/01 00:13:05;;;;;;;17.20;14.50;;;2.10;1.00;;;;;;5037114;28;20214;-41
2023/03/01 00:15:31;;;;;;;17.43;15.10;;;2.10;1.00;;;;;;5036888;28;20457;-40
2023/03/01 00:17:57;;;;;;;17.40;15.50;;;2.10;1.00;;;;;;5036986;28;20805;-41
2023/03/01 00:20:23;;;;;;;18.20;15.20;;;2.10;1.00;;;;;;5037966;28;20516;-41
2023/03/01 00:22:48;;;;;;;18.87;15.43;;;2.10;1.00;;;;;;5037924;28;20182;-42
2023/03/01 00:25:14;;;;;;;17.60;15.20;;;2.10;1.00;;;;;;5035398;28;20580;-41
2023/03/01 00:27:39;;;;;;;18.30;15.07;;;2.00;1.00;;;;;;5035404;28;20248;-42
2023/03/01 00:30:06;;;;;;;17.70;14.50;;;2.00;1.00;;;;;;5034901;28;20242;-41
2023/03/01 00:32:31;;;;;;;18.30;14.60;;;2.00;1.00;;;;;;5035716;28;20197;-42
2023/03/01 00:34:57;;;;;;;17.93;16.03;;;2.00;1.00;;;;;;5037892;28;20779;-41
2023/03/01 00:37:23;;;;;;;20.70;15.33;;;2.00;1.00;;;;;;5039638;28;20638;-41
2023/03/01 00:39:49;;;;;;;17.87;14.60;;;1.90;1.00;;;;;;5039094;28;20182;-42
2023/03/01 00:42:16;;;;;;;19.93;15.17;;;1.90;1.00;;;;;;5038599;28;20450;-41
2023/03/01 00:44:41;;;;;;;18.07;15.10;;;1.90;1.00;;;;;;5039584;28;20421;-41
2023/03/01 00:47:07;;;;;;;18.87;15.13;;;1.90;1.00;;;;;;5039652;28;20496;-42
2023/03/01 00:49:33;;;;;;;16.60;14.90;;;1.80;1.00;;;;;;5039295;28;20459;-41
2023/03/01 00:51:58;;;;;;;16.70;15.00;;;1.80;1.00;;;;;;5039072;28;20900;-40
2023/03/01 00:54:24;;;;;;;18.80;15.77;;;1.80;1.00;;;;;;5039222;28;20186;-42
2023/03/01 00:56:50;;;;;;;20.07;15.13;;;1.70;1.00;;;;;;5039358;28;20210;-41
2023/03/01 00:59:15;;;;;;;19.23;15.80;;;1.80;1.00;;;;;;5039180;28;20430;-40
2023/03/01 01:01:41;;;;;;;17.03;15.20;;;1.70;1.00;;;;;;5039359;28;20254;-41
2023/03/01 01:04:10;;;;;;;19.23;15.90;;;1.70;1.00;;;;;;5038947;28;20179;-40
2023/03/01 01:06:38;;;;;;;21.70;16.33;;;1.70;1.00;;;;;;5037693;28;20178;-42
2023/03/01 01:09:06;;;;;;;16.73;14.90;;;1.60;1.00;;;;;;5040018;28;20429;-41
2023/03/01 01:11:33;;;;;;;21.27;15.70;;;1.60;1.00;;;;;;5039179;28;20491;-41
2023/03/01 01:13:59;;;;;;;17.63;15.20;;;1.60;1.00;;;;;;5037713;28;20511;-42
2023/03/01 01:16:27;;;;;;;20.67;15.53;;;1.60;1.00;;;;;;5037007;28;20465;-41
2023/03/01 01:18:53;;;;;;;19.23;16.20;;;1.50;1.00;;;;;;5037266;28;20520;-43
2023/03/01 01:21:22;;;;;;;17.87;15.67;;;1.50;1.00;;;;;;5037763;28;20483;-42
2023/03/01 01:23:48;;;;;;;20.80;17.10;;;1.50;1.00;;;;;;5037060;28;20425;-42
2023/03/01 01:26:17;;;;;;;18.73;16.03;;;1.50;1.00;;;;;;5038627;28;20428;-41
2023/03/01 01:28:43;;;;;;;18.47;15.23;;;1.50;1.00;;;;;;5039156;28;20739;-41
2023/03/01 01:31:09;;;;;;;19.00;15.13;;;1.40;1.00;;;;;;5039913;28;20543;-41
2023/03/01 01:33:37;;;;;;;19.43;16.13;;;1.40;1.00;;;;;;5039970;28;20183;-42
2023/03/01 01:36:04;;;;;;;18.93;15.80;;;1.40;1.00;;;;;;5039761;28;20591;-42
2023/03/01 01:38:29;;;;;;;19.40;16.73;;;1.40;1.00;;;;;;5040695;28;20440;-41
2023/03/01 01:40:55;;;;;;;20.50;15.80;;;1.30;1.00;;;;;;5040310;28;20425;-42
2023/03/01 01:43:27;;;;;;;19.80;15.73;;;1.30;1.00;;;;;;5039345;28;20174;-41
2023/03/01 01:45:59;;;;;;;19.83;16.07;;;1.30;1.00;;;;;;5040196;28;20643;-41
2023/03/01 01:48:40;;;;;;;20.70;17.10;;;1.30;1.00;;;;;;5040045;28;20557;-41
2023/03/01 01:51:09;;;;;;;19.00;16.10;;;1.30;1.00;;;;;;5039035;28;20429;-41
2023/03/01 01:53:36;;;;;;;17.30;14.77;;;1.20;1.00;;;;;;5022287;28;20445;-41
2023/03/01 01:56:02;;;;;;;19.87;15.67;;;1.20;1.00;;;;;;5037463;28;20672;-40
2023/03/01 01:58:29;;;;;;;19.00;16.23;;;1.20;1.00;;;;;;5018293;28;20440;-41
2023/03/01 02:00:55;;;;;;;21.63;16.77;;;1.20;1.00;;;;;;5023370;28;20429;-40
2023/03/01 02:03:28;;;;;;;17.80;15.83;;;1.10;1.00;;;;;;5038742;28;20916;-41
2023/03/01 02:06:01;;;;;;;20.93;16.07;;;1.10;1.00;;;;;;5038088;28;20244;-42
2023/03/01 02:08:30;;;;;;;17.97;15.90;;;1.10;1.00;;;;;;5038033;28;20437;-39
2023/03/01 02:10:56;;;;;;;17.37;14.60;;;1.00;1.00;;;;;;5038650;28;20433;-41
2023/03/01 02:13:22;;;;;;;24.13;17.93;;;1.00;1.00;;;;;;5038925;28;20432;-41
2023/03/01 02:15:48;;;;;;;20.03;16.47;;;1.00;1.00;;;;;;5039466;28;20525;-40
2023/03/01 02:18:18;;;;;;;22.37;17.13;;;1.00;1.00;;;;;;5038548;28;20809;-41
2023/03/01 02:21:04;;;;;;;22.73;16.67;;;1.10;1.00;;;;;;5038977;28;20492;-41
2023/03/01 02:23:31;;;;;;;21.83;16.90;;;1.10;1.00;;;;;;5038887;28;20490;-41
2023/03/01 02:26:05;;;;;;;19.27;16.97;;;1.10;1.00;;;;;;5037884;28;20433;-40
2023/03/01 02:28:31;;;;;;;21.57;16.90;;;1.10;1.00;;;;;;5038288;28;20518;-40
2023/03/01 02:33:43;;;;;;;19.67;15.83;;;1.10;1.00;;;;;;5038337;28;20552;-42
2023/03/01 02:36:21;;;;;;;22.67;15.80;;;1.20;1.00;;;;;;5037379;28;20516;-42
2023/03/01 02:38:48;;;;;;;19.87;17.20;;;1.20;1.00;;;;;;5036805;28;20440;-42
2023/03/01 02:41:16;;;;;;;19.80;15.70;;;1.30;1.00;;;;;;5020501;28;20468;-41
2023/03/01 02:43:42;;;;;;;20.53;17.10;;;1.30;1.00;;;;;;5036245;28;20437;-40
2023/03/01 02:46:15;;;;;;;19.90;15.90;;;1.30;1.00;;;;;;5037837;28;20422;-41
2023/03/01 02:48:43;;;;;;;20.90;17.00;;;1.30;1.00;;;;;;5037769;28;20227;-42
2023/03/01 02:51:50;;;;;;;21.33;15.90;;;1.40;1.00;;;;;;5037670;28;20433;-42
2023/03/01 02:54:28;;;;;;;20.60;15.83;;;1.40;1.00;;;;;;5037647;28;20527;-41
2023/03/01 02:56:54;;;;;;;19.17;16.23;;;1.50;1.00;;;;;;5036746;28;20483;-43
2023/03/01 02:59:21;;;;;;;22.77;17.23;;;1.50;1.00;;;;;;5036409;28;20890;-41
2023/03/01 03:01:47;;;;;;;19.63;17.60;;;1.50;1.00;;;;;;5036290;28;20174;-41
2023/03/01 03:04:17;;;;;;;24.10;17.17;;;1.50;1.00;;;;;;5036829;28;20428;-42
2023/03/01 03:06:48;;;;;;;19.67;16.23;;;1.60;1.00;;;;;;5034025;28;20186;-40
2023/03/01 03:09:14;;;;;;;20.67;16.53;;;1.60;1.00;;;;;;5034762;28;20450;-42
2023/03/01 03:11:42;;;;;;;20.80;16.83;;;1.60;1.00;;;;;;5035478;28;20420;-41
2023/03/01 03:14:14;;;;;;;20.00;17.03;;;1.70;1.00;;;;;;5036053;28;20432;-39
2023/03/01 03:16:45;;;;;;;22.60;17.67;;;1.70;1.00;;;;;;5036697;28;20469;-40
2023/03/01 03:19:11;;;;;;;20.47;16.90;;;1.70;1.00;;;;;;5037630;28;20424;-43
2023/03/01 03:21:37;;;;;;;19.50;16.50;;;1.80;1.00;;;;;;5037649;28;20429;-42
2023/03/01 03:24:03;;;;;;;21.13;17.10;;;1.80;1.00;;;;;;5036392;28;20491;-42
2023/03/01 03:26:29;;;;;;;20.60;16.37;;;1.80;1.00;;;;;;5037249;28;20178;-41
2023/03/01 03:28:55;;;;;;;21.57;17.60;;;1.80;1.00;;;;;;5037544;28;20483;-41
2023/03/01 03:31:21;;;;;;;24.13;18.40;;;1.80;1.00;;;;;;5036341;28;20493;-41
2023/03/01 03:33:47;;;;;;;21.43;17.57;;;1.80;1.00;;;;;;5035947;28;20477;-40
2023/03/01 03:36:18;;;;;;;22.50;17.30;;;1.80;1.00;;;;;;5035491;28;20457;-42
2023/03/01 03:38:46;;;;;;;18.80;16.83;;;1.90;1.00;;;;;;5036441;28;20256;-42
2023/03/01 03:41:13;;;;;;;21.33;16.60;;;1.90;1.00;;;;;;5036009;28;20876;-43
2023/03/01 03:43:40;;;;;;;25.00;17.00;;;1.90;1.00;;;;;;5036378;28;20460;-42
2023/03/01 03:46:06;;;;;;;19.07;16.80;;;1.90;1.00;;;;;;5035099;28;20441;-39
2023/03/01 03:48:38;;;;;;;19.73;16.50;;;1.90;1.00;;;;;;5035679;28;20827;-40
2023/03/01 03:51:06;;;;;;;20.97;16.50;;;1.90;1.00;;;;;;5036688;28;20429;-41
2023/03/01 03:53:32;;;;;;;22.70;17.27;;;2.00;1.00;;;;;;5036824;28;20464;-41
2023/03/01 03:55:58;;;;;;;19.83;16.97;;;2.00;1.00;;;;;;5036117;28;20428;-41
2023/03/01 03:58:25;;;;;;;20.13;17.30;;;2.00;1.00;;;;;;5036516;28;20449;-41
2023/03/01 04:00:56;;;;;;;23.80;19.10;;;2.00;1.00;;;;;;5037000;28;20198;-41
2023/03/01 04:03:22;;;;;;;21.17;17.30;;;2.00;1.00;;;;;;5036979;28;20441;-41
2023/03/01 04:05:52;;;;;;;19.77;17.13;;;2.00;1.00;;;;;;5037290;28;20437;-41
2023/03/01 04:08:20;;;;;;;21.17;17.43;;;2.10;1.00;;;;;;5036547;28;20520;-41
2023/03/01 04:10:48;;;;;;;19.67;17.13;;;2.10;1.00;;;;;;5037253;28;20575;-40
2023/03/01 04:13:17;;;;;;;22.03;18.70;;;2.10;1.00;;;;;;5037122;28;20882;-41
2023/03/01 04:15:43;;;;;;;21.23;17.63;;;2.10;1.00;;;;;;5036207;28;20435;-42
2023/03/01 04:18:14;;;;;;;21.30;18.40;;;2.10;1.00;;;;;;5035660;28;20484;-40
2023/03/01 04:20:41;;;;;;;24.43;18.67;;;2.10;1.00;;;;;;5036849;28;20508;-41
2023/03/01 04:23:26;;;;;;;31.27;20.30;;;2.10;1.00;;;;;;5036966;28;20494;-42
2023/03/01 04:25:55;;;;;;;35.67;25.97;;;2.10;1.00;;;;;;5036450;28;20424;-41
2023/03/01 04:28:26;;;;;;;35.47;24.87;;;2.20;1.00;;;;;;5035436;28;20543;-42
2023/03/01 04:30:53;;;;;;;31.97;23.20;;;2.20;1.00;;;;;;5034820;28;20604;-41
2023/03/01 04:33:20;;;;;;;26.03;20.83;;;2.20;1.00;;;;;;5035083;28;20505;-43
2023/03/01 04:35:45;;;;;;;26.30;21.00;;;2.20;1.00;;;;;;5036036;28;20425;-41
2023/03/01 04:38:11;;;;;;;27.20;21.63;;;2.20;1.00;;;;;;5036151;28;20564;-40
2023/03/01 04:40:37;;;;;;;24.53;21.17;;;2.20;1.00;;;;;;5035028;28;20186;-41
2023/03/01 04:43:04;;;;;;;25.83;20.00;;;2.20;1.00;;;;;;5035178;28;20182;-42
2023/03/01 04:45:31;;;;;;;23.53;18.70;;;2.20;1.00;;;;;;5034835;28;20494;-40
2023/03/01 04:47:58;;;;;;;19.97;17.53;;;2.20;1.00;;;;;;5034682;28;20432;-41
2023/03/01 04:50:25;;;;;;;26.00;18.17;;;2.20;1.00;;;;;;5035519;28;20437;-41
2023/03/01 04:52:51;;;;;;;22.37;17.93;;;2.20;1.00;;;;;;5034545;28;20720;-41
2023/03/01 04:55:17;;;;;;;24.70;19.80;;;2.20;1.00;;;;;;5035089;28;20477;-41
2023/03/01 04:57:42;;;;;;;23.03;18.50;;;2.20;1.00;;;;;;5018322;28;20543;-40
2023/03/01 05:00:20;;;;;;;24.00;18.53;;;2.20;1.00;;;;;;5034937;28;20254;-40
2023/03/01 05:02:57;;;;;;;24.67;19.40;;;2.20;1.00;;;;;;5033892;28;20178;-40
2023/03/01 05:05:35;;;;;;;22.90;18.03;;;2.30;1.00;;;;;;5035083;28;20677;-41
2023/03/01 05:08:04;;;;;;;21.17;18.60;;;2.30;1.00;;;;;;5035059;28;20436;-41
2023/03/01 05:10:32;;;;;;;22.33;18.40;;;2.20;1.00;;;;;;5035344;28;20428;-42
2023/03/01 05:12:59;;;;;;;23.73;18.07;;;2.20;1.00;;;;;;5034805;28;20436;-40
2023/03/01 05:15:30;;;;;;;24.47;19.23;;;2.20;1.00;;;;;;5035251;28;20563;-42
2023/03/01 05:17:58;;;;;;;19.17;17.07;;;2.30;1.00;;;;;;5035021;28;20472;-42
2023/03/01 05:20:28;;;;;;;23.87;19.17;;;2.30;1.00;;;;;;5035590;28;20448;-41
2023/03/01 05:22:58;;;;;;;24.97;19.03;;;2.30;1.00;;;;;;5036995;28;20428;-41
2023/03/01 05:25:24;;;;;;;20.47;17.63;;;2.30;1.00;;;;;;5037306;28;20870;-42
2023/03/01 05:27:50;;;;;;;23.90;18.83;;;2.30;1.00;;;;;;5037679;28;20508;-40
2023/03/01 05:30:17;;;;;;;23.20;19.60;;;2.30;1.00;;;;;;5038656;28;20859;-40
2023/03/01 05:32:48;;;;;;;21.30;18.40;;;2.30;1.00;;;;;;5034572;28;20544;-40
2023/03/01 05:35:16;;;;;;;19.73;17.57;;;2.30;1.00;;;;;;5034184;28;20425;-41
2023/03/01 05:37:47;;;;;;;26.17;19.67;;;2.30;1.00;;;;;;5034697;28;20472;-41
2023/03/01 05:40:15;;;;;;;24.43;18.47;;;2.30;1.00;;;;;;5036777;28;20413;-41
2023/03/01 05:42:46;;;;;;;23.03;18.60;;;2.30;1.00;;;;;;5035682;28;20429;-39
2023/03/01 05:45:13;;;;;;;21.90;18.03;;;2.30;1.00;;;;;;5036357;28;20870;-42
2023/03/01 05:47:43;;;;;;;23.33;18.97;;;2.30;1.00;;;;;;5036501;28;20834;-41
2023/03/01 05:50:14;;;;;;;23.07;19.13;;;2.30;1.00;;;;;;5036270;28;20443;-41
2023/03/01 05:52:39;;;;;;;24.57;19.50;;;2.40;1.00;;;;;;5037072;28;20495;-41
2023/03/01 05:55:06;;;;;;;24.37;18.33;;;2.40;1.00;;;;;;5035975;28;20689;-41
2023/03/01 05:57:31;;;;;;;25.33;18.60;;;2.40;1.00;;;;;;5035250;28;20699;-40
2023/03/01 05:59:57;;;;;;;22.70;19.33;;;2.40;1.00;;;;;;5034211;28;20432;-40
2023/03/01 06:02:23;;;;;;;24.77;19.23;;;2.40;1.00;;;;;;5032565;28;20183;-42
2023/03/01 06:04:48;;;;;;;23.10;18.90;;;2.40;1.00;;;;;;5034439;28;20174;-40
2023/03/01 06:07:14;;;;;;;22.00;18.93;;;2.40;1.00;;;;;;5032943;28;20316;-41
2023/03/01 06:10:06;;;;;;;23.50;19.90;;;2.40;1.00;;;;;;5031928;28;20183;-40
2023/03/01 06:12:41;;;;;;;23.73;18.93;;;2.40;1.00;;;;;;5034774;28;20293;-40
2023/03/01 06:15:09;;;;;;;23.60;18.33;;;2.40;1.00;;;;;;5029990;28;20444;-41
2023/03/01 06:17:40;;;;;;;21.73;19.13;;;2.50;1.00;;;;;;5032928;28;20495;-40
2023/03/01 06:20:10;;;;;;;22.27;19.30;;;2.40;1.00;;;;;;5032932;28;20485;-40
2023/03/01 06:22:36;;;;;;;24.83;20.13;;;2.50;1.00;;;;;;5032865;28;20668;-41
2023/03/01 06:25:02;;;;;;;21.93;19.30;;;2.50;1.00;;;;;;5031390;28;20445;-41
2023/03/01 06:27:27;;;;;;;22.87;19.50;;;2.50;1.00;;;;;;5033765;28;20451;-41
2023/03/01 06:29:53;;;;;;;22.93;18.30;;;2.50;1.00;;;;;;5032094;28;20552;-39
2023/03/01 06:32:19;;;;;;;22.00;18.70;;;2.50;1.00;;;;;;5030416;28;20179;-41
2023/03/01 06:34:45;;;;;;;24.37;18.57;;;2.60;1.00;;;;;;5034030;28;20192;-41
2023/03/01 06:37:10;;;;;;;26.53;19.63;;;2.60;1.00;;;;;;5032852;28;20221;-41
2023/03/01 06:39:36;;;;;;;24.47;18.60;;;2.60;1.00;;;;;;5032698;28;20174;-39
2023/03/01 06:42:02;;;;;;;26.30;19.10;;;2.70;1.00;;;;;;5032044;28;20428;-41
2023/03/01 06:44:28;;;;;;;24.63;19.87;;;2.70;1.00;;;;;;5029034;28;20213;-43
2023/03/01 06:46:54;;;;;;;25.50;19.40;;;2.80;1.00;;;;;;5032248;28;20503;-44
2023/03/01 06:49:20;;;;;;;25.17;20.10;;;2.80;1.00;;;;;;5030400;28;20422;-41
2023/03/01 06:51:46;;;;;;;24.60;18.90;;;2.90;1.00;;;;;;5031365;28;20188;-41
2023/03/01 06:54:12;;;;;;;25.67;18.77;;;3.00;1.00;;;;;;5033115;28;20851;-40
2023/03/01 06:56:38;;;;;;;24.30;18.90;;;3.00;1.00;;;;;;5034680;28;20312;-40
2023/03/01 06:59:04;;;;;;;23.57;19.67;;;3.10;1.00;;;;;;5033043;28;20539;-40
2023/03/01 07:01:30;;;;;;;22.00;18.03;;;3.20;1.00;;;;;;5031131;28;20171;-41
2023/03/01 07:03:56;;;;;;;21.97;18.97;;;3.40;1.00;;;;;;5031517;28;20201;-41
2023/03/01 07:06:22;;;;;;;24.20;20.40;;;3.60;1.00;;;;;;5031773;28;20525;-41
2023/03/01 07:08:47;;;;;;;24.70;18.13;;;3.80;1.00;;;;;;5032967;28;20527;-40
2023/03/01 07:11:14;;;;;;;21.67;18.67;;;4.10;1.00;;;;;;5035115;28;20528;-40
2023/03/01 07:13:39;;;;;;;23.60;19.13;;;4.30;1.00;;;;;;5032698;28;20181;-40
2023/03/01 07:16:05;;;;;;;22.33;18.50;;;4.60;1.00;;;;;;5032746;28;20417;-42
2023/03/01 07:18:31;;;;;;;20.60;17.47;;;4.80;1.00;;;;;;5032647;28;20289;-41
2023/03/01 07:20:57;;;;;;;22.60;19.33;;;5.10;1.00;;;;;;5032688;28;20505;-41
2023/03/01 07:23:22;;;;;;;23.07;18.80;;;5.30;1.00;;;;;;5030885;28;20482;-42
2023/03/01 07:25:52;;;;;;;22.67;18.47;;;5.60;1.00;;;;;;5030010;28;20209;-40
2023/03/01 07:28:18;;;;;;;20.23;17.93;;;5.80;1.00;;;;;;5031830;28;20605;-39
2023/03/01 07:30:44;;;;;;;22.83;18.47;;;6.00;1.00;;;;;;5031253;28;20497;-42
2023/03/01 07:33:10;;;;;;;24.73;19.70;;;6.30;1.00;;;;;;5032819;28;20179;-42
2023/03/01 07:35:35;;;;;;;20.37;18.17;;;6.40;1.00;;;;;;5036291;28;20506;-40
2023/03/01 07:38:01;;;;;;;22.10;19.73;;;6.70;1.00;;;;;;5034486;28;20229;-41
2023/03/01 07:40:27;;;;;;;20.93;17.80;;;6.90;1.00;;;;;;5031656;28;20255;-41
2023/03/01 07:42:57;;;;;;;21.50;19.33;;;7.10;1.00;;;;;;5032450;28;20236;-42
2023/03/01 07:45:23;;;;;;;20.93;18.40;;;7.40;1.00;;;;;;5031119;28;20272;-41
2023/03/01 07:47:51;;;;;;;20.67;18.47;;;7.60;1.00;;;;;;5032325;28;20425;-41
2023/03/01 07:50:17;;;;;;;20.87;18.67;;;7.80;1.00;;;;;;5031051;28;20697;-41
2023/03/01 07:52:45;;;;;;;22.00;19.77;;;8.10;1.00;;;;;;5031535;28;20665;-41
2023/03/01 07:55:11;;;;;;;22.43;20.13;;;8.30;1.00;;;;;;5030930;28;20492;-44
2023/03/01 07:57:36;;;;;;;21.70;18.70;;;8.60;1.00;;;;;;5031202;28;20910;-41
2023/03/01 08:00:03;;;;;;;20.20;18.10;;;8.90;1.00;;;;;;5030442;28;20186;-42
2023/03/01 08:02:29;;;;;;;20.47;18.33;;;9.10;1.00;;;;;;5029716;28;20233;-42
2023/03/01 08:04:54;;;;;;;20.93;18.70;;;9.40;1.00;;;;;;5030113;28;20816;-42
2023/03/01 08:07:20;;;;;;;21.00;18.80;;;9.60;1.00;;;;;;5031096;28;20197;-42
2023/03/01 08:09:45;;;;;;;22.97;18.67;;;9.90;1.00;;;;;;5031869;28;20596;-42
2023/03/01 08:12:11;;;;;;;21.07;18.80;;;10.20;1.00;;;;;;5031738;28;20167;-41
2023/03/01 08:14:37;;;;;;;19.93;17.97;;;10.50;1.00;;;;;;5029631;28;20307;-42
2023/03/01 08:17:02;;;;;;;19.40;17.43;;;10.80;1.00;;;;;;5030177;28;20309;-42
2023/03/01 08:19:29;;;;;;;19.57;17.67;;;11.10;1.00;;;;;;5031392;28;20281;-41
2023/03/01 08:21:54;;;;;;;20.60;18.60;;;11.40;1.00;;;;;;5030362;28;20178;-42
2023/03/01 08:24:20;;;;;;;18.27;16.57;;;11.80;1.00;;;;;;5026381;28;20523;-42
2023/03/01 08:26:46;;;;;;;20.33;18.10;;;12.10;1.00;;;;;;5029907;28;20496;-41
2023/03/01 08:29:11;;;;;;;19.43;17.47;;;12.40;1.00;;;;;;5028755;28;20230;-42
2023/03/01 08:31:39;;;;;;;19.70;17.80;;;12.70;1.00;;;;;;5029275;28;20190;-41
2023/03/01 08:34:07;;;;;;;19.47;17.43;;;13.10;1.00;;;;;;5028170;28;20177;-43
2023/03/01 08:36:42;;;;;;;18.83;16.93;;;13.50;99.90;;;;;;5029448;28;20491;-42
2023/03/01 08:39:10;;;;;;;23.87;19.17;;;13.80;99.90;;;;;;5031396;28;20789;-42
2023/03/01 08:41:36;;;;;;;21.10;18.87;;;14.10;99.90;;;;;;5032825;28;20672;-42
2023/03/01 08:44:02;;;;;;;19.83;18.03;;;14.50;99.90;;;;;;5032200;28;20420;-43
2023/03/01 08:46:30;;;;;;;18.53;16.60;;;14.70;99.90;;;;;;5032734;28;20175;-42
2023/03/01 08:48:56;;;;;;;20.10;18.10;;;15.10;99.90;;;;;;5031597;28;20444;-42
2023/03/01 08:51:22;;;;;;;19.80;17.80;;;15.50;99.90;;;;;;5033608;28;20421;-42
2023/03/01 08:53:48;;;;;;;20.10;18.20;;;15.70;99.90;;;;;;5031827;28;20182;-42
2023/03/01 08:56:14;;;;;;;19.27;17.40;;;16.10;99.90;;;;;;5036462;28;20420;-42
2023/03/01 08:58:40;;;;;;;18.17;16.47;;;16.50;1.00;;;;;;5036337;28;20170;-42
2023/03/01 09:01:10;;;;;;;19.67;17.80;;;16.90;99.90;;;;;;5035735;28;20441;-41
2023/03/01 09:03:37;;;;;;;19.57;17.87;;;17.30;99.90;;;;;;5036265;28;20517;-42
2023/03/01 09:06:04;;;;;;;20.53;18.73;;;17.60;99.90;;;;;;5033441;28;20823;-44
2023/03/01 09:08:29;;;;;;;19.60;17.80;;;17.70;99.90;;;;;;5047070;28;20531;-41
2023/03/01 09:10:55;;;;;;;14.60;13.20;;;17.80;99.90;;;;;;5057158;28;20507;-44
2023/03/01 09:13:24;;;;;;;15.10;13.60;;;18.20;1.00;;;;;;5056119;28;20427;-46
2023/03/01 09:15:51;;;;;;;13.90;12.50;;;18.60;1.00;;;;;;5054008;28;20189;-43
2023/03/01 09:18:16;;;;;;;12.83;11.73;;;19.10;99.90;;;;;;5054239;28;20468;-43
2023/03/01 09:20:42;;;;;;;10.00;9.10;;;19.60;99.90;;;;;;5053196;28;20416;-44
2023/03/01 09:23:07;;;;;;;11.93;10.70;;;20.30;1.00;;;;;;5055261;28;20184;-44
2023/03/01 09:25:35;;;;;;;11.20;10.10;;;;;;;;;;5052969;28;20545;-44
2023/03/01 09:28:01;;;;;;;14.33;12.93;;;21.60;1.00;;;;;;5053228;28;20265;-44
2023/03/01 09:30:26;;;;;;;12.40;11.30;;;22.20;1.00;;;;;;5054818;28;20609;-45
2023/03/01 09:32:52;;;;;;;14.17;12.97;;;22.80;1.00;;;;;;5052125;28;20451;-47
2023/03/01 09:35:19;;;;;;;14.33;13.10;;;23.20;1.00;;;;;;5054195;28;20177;-44
2023/03/01 09:37:45;;;;;;;14.80;13.20;;;23.70;1.00;;;;;;5054803;28;20240;-44
2023/03/01 09:40:18;;;;;;;14.57;13.30;;;24.10;1.00;;;;;;5056674;28;20853;-44
2023/03/01 09:42:53;;;;;;;14.17;12.93;;;24.30;1.00;;;;;;5055803;28;20419;-44
2023/03/01 09:45:25;;;;;;;13.67;12.47;;;24.40;1.00;;;;;;5056994;28;20478;-45
2023/03/01 09:47:51;;;;;;;15.03;13.73;;;24.70;1.00;;;;;;5055980;28;20475;-44
2023/03/01 09:50:19;;;;;;;15.57;14.30;;;24.90;1.00;;;;;;5056786;28;20527;-44
2023/03/01 09:52:51;;;;;;;16.50;15.00;;;25.10;1.00;;;;;;5056782;28;20748;-46
2023/03/01 09:55:25;;;;;;;16.63;15.03;;;25.40;1.00;;;;;;5057860;28;20409;-44
2023/03/01 09:57:57;;;;;;;16.03;14.63;;;25.70;1.00;;;;;;5053508;28;20549;-45
2023/03/01 10:00:44;;;;;;;16.93;15.53;;;26.10;1.00;;;;;;5053258;28;20423;-45
2023/03/01 10:03:16;;;;;;;17.33;15.83;;;26.20;1.00;;;;;;5054831;28;20452;-45
2023/03/01 10:05:54;;;;;;;15.27;13.97;;;26.40;1.00;;;;;;5053187;28;20427;-45
2023/03/01 10:08:41;;;;;;;16.30;14.90;;;26.60;1.00;;;;;;5052818;28;20537;-46
2023/03/01 10:11:26;;;;;;;18.07;16.60;;;26.90;1.00;;;;;;5052046;28;20691;-46
2023/03/01 10:14:09;;;;;;;16.57;15.17;;;26.90;99.90;;;;;;5053439;28;20427;-45
2023/03/01 10:16:57;;;;;;;16.37;15.07;;;27.00;99.90;;;;;;5052429;28;20476;-46
2023/03/01 10:19:30;;;;;;;16.63;15.23;;;27.30;99.90;;;;;;5037176;28;20430;-45
2023/03/01 10:22:02;;;;;;;17.13;15.70;;;27.50;99.90;;;;;;5053535;28;20573;-46
2023/03/01 10:24:32;;;;;;;16.37;15.07;;;27.60;1.00;;;;;;5035560;28;20479;-43
2023/03/01 10:27:04;;;;;;;16.50;15.00;;;27.80;99.90;;;;;;5052372;28;20470;-43
2023/03/01 10:29:43;;;;;;;16.43;14.93;;;27.90;99.90;;;;;;5054537;28;20547;-46
2023/03/01 10:32:10;;;;;;;16.13;14.77;;;28.20;99.90;;;;;;5055982;28;20420;-43
2023/03/01 10:34:35;;;;;;;17.13;15.83;;;28.50;99.90;;;;;;5056882;28;20766;-44
2023/03/01 10:37:12;;;;;;;16.30;14.97;;;28.80;99.90;;;;;;5054916;28;20533;-47
2023/03/01 10:40:14;;;;;;;16.97;15.67;;;28.70;1.00;;;;;;5053200;28;20773;-45
2023/03/01 10:42:47;;;;;;;16.23;15.00;;;28.90;99.90;;;;;;5052547;28;20534;-44
2023/03/01 10:45:23;;;;;;;17.93;16.43;;;29.40;1.00;;;;;;5052397;28;20749;-46
2023/03/01 10:48:04;;;;;;;17.40;16.07;;;29.80;1.00;;;;;;5052009;28;20391;-45
2023/03/01 10:50:29;;;;;;;17.30;15.90;;;30.10;1.00;;;;;;5052327;28;20479;-45
2023/03/01 10:53:03;;;;;;;18.80;17.20;;;30.20;1.00;;;;;;5050550;28;20391;-44
2023/03/01 10:55:39;;;;;;;15.20;14.03;;;30.40;1.00;;;;;;5052720;28;20714;-44
2023/03/01 10:58:22;;;;;;;16.00;14.70;;;30.70;1.00;;;;;;5049643;28;20479;-46
2023/03/01 11:01:04;;;;;;;17.33;16.03;;;30.90;1.00;;;;;;5051069;28;20422;-44
2023/03/01 11:03:38;;;;;;;15.13;14.00;;;31.30;1.00;;;;;;5050385;28;20856;-47
2023/03/01 11:06:12;;;;;;;18.40;16.90;;;31.70;1.00;;;;;;5050440;28;20412;-47
2023/03/01 11:08:38;;;;;;;17.43;16.03;;;31.70;1.00;;;;;;5053483;28;20523;-45
2023/03/01 11:11:12;;;;;;;16.70;15.40;;;31.70;1.00;;;;;;5054886;28;20871;-44
2023/03/01 11:14:06;;;;;;;17.40;16.10;;;31.90;1.00;;;;;;5051937;28;20176;-45
2023/03/01 11:16:34;;;;;;;16.43;15.13;;;32.00;1.00;;;;;;5051021;28;20409;-44
2023/03/01 11:19:09;;;;;;;15.07;13.97;;;32.00;1.00;;;;;;5050869;28;20412;-45
2023/03/01 11:21:38;;;;;;;16.63;15.20;;;32.40;1.00;;;;;;5052091;28;20684;-44
2023/03/01 11:24:06;;;;;;;16.33;15.03;;;32.70;1.00;;;;;;5048022;28;20714;-45
2023/03/01 11:26:36;;;;;;;15.57;14.27;;;33.10;1.00;;;;;;5050620;28;20383;-45
2023/03/01 11:29:05;;;;;;;16.30;15.00;;;33.30;1.00;;;;;;5051865;28;20462;-45
2023/03/01 11:31:31;;;;;;;15.00;13.90;;;33.10;1.00;;;;;;5052014;28;20794;-46
2023/03/01 11:34:03;;;;;;;17.90;16.47;;;33.60;1.00;;;;;;5052916;28;20443;-43
2023/03/01 11:36:35;;;;;;;15.90;14.50;;;33.40;1.00;;;;;;5051707;28;20463;-44
2023/03/01 11:39:41;;;;;;;15.40;14.20;;;33.40;1.00;;;;;;5051245;28;20483;-43
2023/03/01 11:42:33;;;;;;;15.67;14.27;;;33.80;1.00;;;;;;5047537;28;20494;-44
2023/03/01 11:45:00;;;;;;;13.90;12.80;;;34.30;1.00;;;;;;5051218;28;20503;-43
2023/03/01 11:47:31;;;;;;;15.23;14.13;;;34.60;1.00;;;;;;5054359;28;20420;-45
2023/03/01 11:50:08;;;;;;;14.53;13.33;;;34.70;1.00;;;;;;5052785;28;20408;-44
2023/03/01 11:52:55;;;;;;;14.63;13.43;;;34.70;1.00;;;;;;5052653;28;20446;-44
2023/03/01 11:55:49;;;;;;;14.43;13.13;;;34.90;1.00;;;;;;5052777;28;20416;-45
2023/03/01 11:58:29;;;;;;;14.80;13.70;;;35.10;1.00;;;;;;5050365;28;20472;-46
2023/03/01 12:01:05;;;;;;;13.37;12.37;;;34.70;1.00;;;;;;5051366;28;20825;-45
2023/03/01 12:03:58;;;;;;;14.20;13.10;;;35.00;1.00;;;;;;5052670;28;20804;-45
2023/03/01 12:06:46;;;;;;;13.80;12.70;;;35.60;1.00;;;;;;5051791;28;20433;-47
2023/03/01 12:09:26;;;;;;;13.30;12.30;;;35.80;1.00;;;;;;5050681;28;20507;-44
2023/03/01 12:11:55;;;;;;;15.50;14.30;;;35.70;1.00;;;;;;5036160;28;20823;-46
2023/03/01 12:14:41;;;;;;;14.83;13.63;;;35.70;1.00;;;;;;5031794;28;20524;-45
2023/03/01 12:17:30;;;;;;;14.43;13.33;;;35.90;1.00;;;;;;5031584;28;20764;-48
2023/03/01 12:20:02;;;;;;;14.20;13.10;;;36.10;1.00;;;;;;5031788;28;20451;-46
2023/03/01 12:22:53;;;;;;;13.87;12.87;;;36.30;1.00;;;;;;5031234;28;20460;-45
2023/03/01 12:26:04;;;;;;;13.63;12.63;;;36.30;1.00;;;;;;5025437;28;20459;-45
2023/03/01 12:28:45;;;;;;;15.40;14.10;;;36.40;1.00;;;;;;4972282;28;20567;-44
2023/03/01 12:31:58;;;;;;;15.13;13.93;;;36.40;1.00;;;;;;4975843;28;20506;-47
2023/03/01 12:34:47;;;;;;;13.00;12.00;;;36.40;1.00;;;;;;4969139;28;20526;-44
2023/03/01 12:37:31;;;;;;;14.97;13.77;;;36.40;1.00;;;;;;5028490;28;20480;-45
2023/03/01 12:40:30;;;;;;;13.47;12.47;;;36.60;1.00;;;;;;5037458;28;20417;-46
2023/03/01 12:43:05;;;;;;;13.00;12.13;;;36.70;1.00;;;;;;5035764;28;20425;-45
2023/03/01 12:46:15;;;;;;;15.17;13.90;;;36.30;1.00;;;;;;5036034;28;20420;-44
2023/03/01 12:48:50;;;;;;;14.30;13.10;;;36.40;1.00;;;;;;5035221;28;20519;-45
2023/03/01 12:51:20;;;;;;;13.07;12.07;;;36.60;1.00;;;;;;5035618;28;20797;-47
2023/03/01 12:53:51;;;;;;;14.13;12.93;;;36.90;1.00;;;;;;5034085;28;20786;-44
2023/03/01 12:56:22;;;;;;;13.10;12.10;;;36.90;1.00;;;;;;5033660;28;20425;-44
2023/03/01 12:58:54;;;;;;;13.13;12.13;;;36.70;1.00;;;;;;5033273;28;20462;-44
2023/03/01 13:01:26;;;;;;;12.00;11.10;;;36.70;1.00;;;;;;5035198;28;20409;-47